»·PEaware :: UAL2285 CYVR-KSFO

UAL2285 :: CYVR-KSFO

FLIGHT INFORMATION

Flight Status: Arrived
Operator:
United Airlines
More flights by this operator :: More flights under this callsign
Pilot: Henderson P. (1210)
Aircraft: AIRBUS A320
(A320)
More flights by this aircraft type
Origin: CYVR Vancouver Intl
Canada
Destination: KSFO San Francisco Intl
United States
More flights between these airports :: More routes between these airports
Route: YYJ J589 RBG ENVIE MLBEC BDEGA3
File this flight plan on PilotEdge
Remarks:
Altitude:
(Current/Filed)
37,000ft
Speed:
(Current/Filed)
444kts
Departed: 07-May-19 12:08 PM
Arrived: 07-May-19 01:53 PM
Distance/Time
Traveled:
695nm/1:45
Distance/Time
To Go:
Arrived

Flight Plot

Page will automatically refresh every two minutes.


Map Options




Map Legend


Flown Route
Filed Route
Departure Airport
Arrival Airport
Navaid (VOR, NDB)
Fix

Horizontal Profiles

Position Reports

Time Latitude Longitude Heading Altitude Ground
Speed
07-May-19 11:03 49.197694 -123.172922 268 28ft 0kts
07-May-19 11:04 49.197694 -123.172922 268 28ft 0kts
07-May-19 11:05 49.197694 -123.172922 268 28ft 0kts
07-May-19 11:06 49.197694 -123.172922 268 28ft 0kts
07-May-19 11:07 49.197694 -123.172922 268 28ft 0kts
07-May-19 11:08 49.197694 -123.172922 268 28ft 0kts
07-May-19 11:09 49.197694 -123.172922 268 28ft 0kts
07-May-19 11:10 49.197694 -123.172922 268 28ft 0kts
07-May-19 11:11 49.197694 -123.172922 268 28ft 0kts
07-May-19 11:12 49.197694 -123.172922 268 28ft 0kts
07-May-19 11:13 49.197694 -123.172922 268 28ft 0kts
07-May-19 11:14 49.197694 -123.172922 268 28ft 0kts
07-May-19 11:15 49.197694 -123.172922 268 28ft 0kts
07-May-19 11:16 49.197694 -123.172922 268 28ft 0kts
07-May-19 11:17 49.197694 -123.172922 268 28ft 0kts
07-May-19 11:18 49.197694 -123.172922 268 28ft 0kts
07-May-19 11:19 49.197694 -123.172922 268 28ft 0kts
07-May-19 11:20 49.197694 -123.172922 268 28ft 0kts
07-May-19 11:21 49.197694 -123.172922 268 28ft 0kts
07-May-19 11:22 49.197694 -123.172922 268 28ft 0kts
07-May-19 11:23 49.197694 -123.172922 268 28ft 0kts
07-May-19 11:24 49.197694 -123.172922 268 28ft 0kts
07-May-19 11:25 49.197694 -123.172922 268 28ft 0kts
07-May-19 11:26 49.197694 -123.172922 268 28ft 0kts
07-May-19 11:27 49.197694 -123.172922 268 28ft 0kts
07-May-19 11:28 49.197694 -123.172922 268 28ft 0kts
07-May-19 11:29 49.197694 -123.172922 268 28ft 0kts
07-May-19 11:30 49.197694 -123.172922 268 28ft 0kts
07-May-19 11:31 49.197694 -123.172922 268 28ft 0kts
07-May-19 11:32 49.197694 -123.172922 268 28ft 0kts
07-May-19 11:33 49.197694 -123.172922 268 28ft 0kts
07-May-19 11:34 49.197694 -123.172922 268 28ft 0kts
07-May-19 11:35 49.197694 -123.172922 268 28ft 0kts
07-May-19 11:36 49.197694 -123.172922 268 28ft 0kts
07-May-19 11:37 49.197694 -123.172922 268 28ft 0kts
07-May-19 11:38 49.197694 -123.172922 268 28ft 0kts
07-May-19 11:39 49.197694 -123.172922 268 28ft 0kts
07-May-19 11:40 49.197694 -123.172922 268 28ft 0kts
07-May-19 11:41 49.197694 -123.172922 268 28ft 0kts
07-May-19 11:43 49.197694 -123.172922 268 28ft 0kts
07-May-19 11:44 49.197694 -123.172922 268 28ft 0kts
07-May-19 11:45 49.197694 -123.172922 268 28ft 0kts
07-May-19 11:46 49.197694 -123.172922 268 28ft 0kts
07-May-19 11:47 49.197694 -123.172922 268 28ft 0kts
07-May-19 11:48 49.197694 -123.172922 268 28ft 0kts
07-May-19 11:49 49.197694 -123.172922 268 28ft 0kts
07-May-19 11:50 49.197694 -123.172922 268 28ft 0kts
07-May-19 11:51 49.197694 -123.172922 268 28ft 0kts
07-May-19 11:52 49.197694 -123.172922 268 28ft 0kts
07-May-19 11:54 49.197416 -123.171892 0 28ft 0kts
07-May-19 11:55 49.197417 -123.171891 0 28ft 0kts
07-May-19 11:56 49.197418 -123.171891 0 28ft 0kts
07-May-19 11:57 49.197418 -123.171891 0 28ft 0kts
07-May-19 11:58 49.197873 -123.171885 0 28ft 3kts
07-May-19 11:59 49.199141 -123.173012 281 28ft 9kts
07-May-19 12:00 49.199532 -123.178269 303 28ft 13kts
07-May-19 12:01 49.200407 -123.184304 279 28ft 15kts
07-May-19 12:02 49.196828 -123.186656 195 28ft 16kts
07-May-19 12:03 49.193187 -123.188743 139 28ft 12kts
07-May-19 12:04 49.189829 -123.184866 139 28ft 17kts
07-May-19 12:04 49.188851 -123.178283 99 28ft 21kts
07-May-19 12:06 49.187597 -123.167155 100 28ft 24kts
07-May-19 12:07 49.184814 -123.160709 238 28ft 17kts
07-May-19 12:07 49.187982 -123.189733 280 176ft 151kts
07-May-19 12:09 49.173798 -123.260883 245 2791ft 163kts
07-May-19 12:09 49.151670 -123.315937 226 4096ft 209kts
07-May-19 12:10 49.104960 -123.389521 222 6199ft 270kts
07-May-19 12:12 49.016788 -123.416989 188 9713ft 291kts
07-May-19 12:12 48.945191 -123.434562 189 11216ft 337kts
07-May-19 12:13 48.845589 -123.457154 189 12914ft 379kts
07-May-19 12:14 48.738243 -123.481724 189 14982ft 400kts
07-May-19 12:15 48.623873 -123.479519 178 16859ft 422kts
07-May-19 12:16 48.503682 -123.474234 180 18635ft 441kts
07-May-19 12:17 48.378782 -123.468413 179 20401ft 455kts
07-May-19 12:18 48.278035 -123.464004 180 21679ft 466kts
07-May-19 12:19 48.148137 -123.457663 179 23161ft 478kts
07-May-19 12:20 48.013671 -123.451050 179 24561ft 489kts
07-May-19 12:21 47.876803 -123.444323 179 25882ft 497kts
07-May-19 12:22 47.737104 -123.437474 179 27135ft 504kts
07-May-19 12:23 47.596232 -123.430799 179 28314ft 511kts
07-May-19 12:24 47.452787 -123.423787 179 29369ft 518kts
07-May-19 12:25 47.309220 -123.416769 179 30707ft 516kts
07-May-19 12:26 47.166027 -123.410160 179 31976ft 513kts
07-May-19 12:27 47.023644 -123.403451 180 33179ft 511kts
07-May-19 12:28 46.881752 -123.397039 179 34272ft 509kts
07-May-19 12:29 46.740064 -123.390617 179 35203ft 509kts
07-May-19 12:30 46.598134 -123.384126 179 36027ft 510kts
07-May-19 12:31 46.456478 -123.377894 179 36759ft 510kts
07-May-19 12:32 46.314805 -123.371622 179 37212ft 508kts
07-May-19 12:33 46.173684 -123.365262 179 37212ft 508kts
07-May-19 12:34 46.032004 -123.359113 179 37217ft 508kts
07-May-19 12:35 45.890945 -123.352796 179 37240ft 508kts
07-May-19 12:36 45.749548 -123.346696 178 37229ft 508kts
07-May-19 12:37 45.608498 -123.340614 178 37214ft 508kts
07-May-19 12:38 45.472207 -123.334497 178 37204ft 508kts
07-May-19 12:39 45.331088 -123.328594 178 37211ft 508kts
07-May-19 12:40 45.189621 -123.322449 178 37222ft 508kts
07-May-19 12:41 45.048513 -123.316440 178 37225ft 508kts
07-May-19 12:42 44.907576 -123.310440 178 37218ft 507kts
07-May-19 12:43 44.766335 -123.304484 178 37143ft 507kts
07-May-19 12:44 44.625895 -123.298692 178 37157ft 506kts
07-May-19 12:45 44.485156 -123.293846 181 37210ft 504kts
07-May-19 12:46 44.344651 -123.300723 182 37199ft 504kts
07-May-19 12:47 44.204519 -123.306725 182 37167ft 504kts
07-May-19 12:48 44.064415 -123.313135 182 37162ft 504kts
07-May-19 12:49 43.924531 -123.319364 181 37203ft 502kts
07-May-19 12:50 43.785159 -123.325584 181 37191ft 501kts
07-May-19 12:51 43.645617 -123.331710 181 37150ft 501kts
07-May-19 12:52 43.505765 -123.337945 181 37148ft 502kts
07-May-19 12:53 43.365942 -123.344077 181 37200ft 503kts
07-May-19 12:54 43.226293 -123.350117 181 37227ft 503kts
07-May-19 12:55 43.086700 -123.344604 175 37204ft 501kts
07-May-19 12:56 42.947527 -123.332972 176 37149ft 501kts
07-May-19 12:57 42.808645 -123.322132 175 37161ft 500kts
07-May-19 12:58 42.669916 -123.311250 175 37224ft 499kts
07-May-19 12:59 42.531192 -123.300353 175 37238ft 499kts
07-May-19 13:00 42.392527 -123.289513 175 37241ft 498kts
07-May-19 13:01 42.254600 -123.278765 175 37186ft 498kts
07-May-19 13:03 42.092878 -123.266242 175 37135ft 498kts
07-May-19 13:03 41.977666 -123.257332 175 37139ft 498kts
07-May-19 13:04 41.839827 -123.246852 175 37208ft 496kts
07-May-19 13:05 41.701731 -123.236154 175 37196ft 496kts
07-May-19 13:06 41.563773 -123.225800 175 37194ft 496kts
07-May-19 13:07 41.426315 -123.215315 175 37186ft 496kts
07-May-19 13:08 41.288439 -123.203746 173 37182ft 496kts
07-May-19 13:09 41.151009 -123.188961 173 37184ft 496kts
07-May-19 13:10 41.013584 -123.174778 173 37168ft 495kts
07-May-19 13:11 40.876577 -123.160375 173 37114ft 494kts
07-May-19 13:12 40.739257 -123.146264 173 37064ft 494kts
07-May-19 13:13 40.602303 -123.131986 173 37054ft 494kts
07-May-19 13:14 40.465203 -123.117963 173 37080ft 494kts
07-May-19 13:15 40.328069 -123.103933 173 37107ft 494kts
07-May-19 13:16 40.191139 -123.089949 173 37144ft 493kts
07-May-19 13:17 40.054341 -123.076033 173 37148ft 493kts
07-May-19 13:18 39.917419 -123.062248 172 37132ft 491kts
07-May-19 13:19 39.781762 -123.048547 173 37112ft 486kts
07-May-19 13:20 39.647895 -123.035166 172 37083ft 486kts
07-May-19 13:21 39.512166 -123.021525 173 37111ft 489kts
07-May-19 13:22 39.376231 -123.008075 172 37117ft 489kts
07-May-19 13:23 39.240548 -122.994556 172 37070ft 489kts
07-May-19 13:24 39.124189 -122.983098 172 37050ft 488kts
07-May-19 13:25 38.998307 -122.970706 172 36026ft 486kts
07-May-19 13:26 38.874730 -122.958345 171 34204ft 478kts
07-May-19 13:27 38.762606 -122.926136 160 31615ft 481kts
07-May-19 13:28 38.630743 -122.887373 165 28516ft 492kts
07-May-19 13:29 38.501303 -122.848785 164 26920ft 452kts
07-May-19 13:30 38.381221 -122.813760 165 24773ft 438kts
07-May-19 13:31 38.264648 -122.779521 166 22716ft 422kts
07-May-19 13:32 38.152292 -122.746773 166 20643ft 410kts
07-May-19 13:33 38.043339 -122.715155 166 18582ft 396kts
07-May-19 13:34 37.937841 -122.684673 166 16547ft 382kts
07-May-19 13:35 37.849046 -122.621784 135 14531ft 363kts
07-May-19 13:36 37.776863 -122.540103 125 12152ft 344kts
07-May-19 13:37 37.731723 -122.433693 113 10012ft 332kts
07-May-19 13:38 37.695131 -122.337560 113 9015ft 293kts
07-May-19 13:39 37.660374 -122.245709 113 7622ft 286kts
07-May-19 13:40 37.626765 -122.155860 113 6287ft 278kts
07-May-19 13:41 37.594735 -122.068632 113 4953ft 272kts
07-May-19 13:42 37.565188 -121.984749 113 4214ft 243kts
07-May-19 13:43 37.517902 -121.954652 214 3997ft 211kts
07-May-19 13:44 37.490451 -122.015522 262 4008ft 209kts
07-May-19 13:45 37.496444 -122.084405 297 4007ft 193kts
07-May-19 13:46 37.521747 -122.144221 297 3719ft 192kts
07-May-19 13:47 37.546458 -122.202956 296 2754ft 188kts
07-May-19 13:48 37.567681 -122.253447 297 1886ft 143kts
07-May-19 13:49 37.585225 -122.295227 297 1206ft 130kts
07-May-19 13:50 37.602227 -122.335420 294 484ft 129kts
07-May-19 13:51 37.618228 -122.373785 297 27ft 81kts
07-May-19 13:52 37.622111 -122.385906 260 27ft 10kts
07-May-19 13:53 37.622551 -122.389886 253 27ft 14kts
07-May-19 13:54 37.620127 -122.391495 119 27ft 10kts
07-May-19 13:55 37.618967 -122.387837 141 27ft 5kts
07-May-19 13:56 37.618552 -122.387561 153 27ft 0kts
07-May-19 13:57 37.618552 -122.387561 153 27ft 0kts
07-May-19 13:58 37.618552 -122.387561 153 27ft 0kts
07-May-19 13:59 37.618552 -122.387561 153 27ft 0kts
07-May-19 14:00 37.618552 -122.387561 153 27ft 0kts
07-May-19 14:01 37.618552 -122.387561 153 27ft 0kts
07-May-19 14:02 37.618552 -122.387561 153 27ft 0kts
07-May-19 14:03 37.618552 -122.387561 153 27ft 0kts
07-May-19 14:04 37.618552 -122.387561 153 27ft 0kts
07-May-19 14:05 37.618552 -122.387561 153 27ft 0kts
07-May-19 14:06 37.618552 -122.387561 153 27ft 0kts

Navigation Log

Ident Type
Flight plan parsing failed, navigation log unavailable